createdAt,value
2019-01-04T00:00:36.418Z,1.00
2019-01-04T00:03:05.360Z,1.10
2019-01-04T00:05:34.246Z,1.10
2019-01-04T00:08:03.108Z,1.10
2019-01-04T00:10:31.920Z,1.10
2019-01-04T00:13:00.629Z,1.10
2019-01-04T00:17:57.854Z,1.00
2019-01-04T00:20:26.633Z,1.10
2019-01-04T00:22:55.433Z,1.00
2019-01-04T00:25:24.401Z,0.90
2019-01-04T00:27:53.464Z,0.80
2019-01-04T00:30:22.729Z,0.90
2019-01-04T00:32:51.722Z,0.90
2019-01-04T00:35:20.477Z,0.80
2019-01-04T00:40:23.740Z,0.90
2019-01-04T00:42:52.719Z,0.90
2019-01-04T00:45:21.458Z,0.80
2019-01-04T00:47:50.268Z,0.80
2019-01-04T00:50:19.041Z,0.80
2019-01-04T00:52:49.174Z,0.90
2019-01-04T00:55:39.581Z,0.90
2019-01-04T00:58:41.298Z,0.80
2019-01-04T01:04:43.482Z,0.70
2019-01-04T01:07:49.262Z,0.80
2019-01-04T01:11:04.048Z,0.80
2019-01-04T01:14:02.459Z,0.90
2019-01-04T01:17:02.336Z,0.90
2019-01-04T01:19:56.023Z,0.90
2019-01-04T01:23:18.372Z,0.90
2019-01-04T01:26:21.435Z,1.00
2019-01-04T01:31:57.710Z,1.10
2019-01-04T01:35:17.512Z,1.10
2019-01-04T01:38:18.265Z,1.00
2019-01-04T01:41:29.927Z,1.00
2019-01-04T01:44:42.393Z,1.10
2019-01-04T01:47:36.248Z,1.00
2019-01-04T01:50:28.700Z,1.10
2019-01-04T01:52:57.449Z,1.10
2019-01-04T01:57:54.856Z,1.10
2019-01-04T02:00:23.669Z,1.20
2019-01-04T02:02:52.451Z,1.10
2019-01-04T02:05:21.286Z,1.10
2019-01-04T02:07:50.209Z,1.10
2019-01-04T02:10:19.250Z,1.10
2019-01-04T02:12:48.129Z,1.10
2019-01-04T02:15:16.900Z,1.20
2019-01-04T02:20:14.083Z,1.20
2019-01-04T02:22:42.949Z,1.20
2019-01-04T02:25:11.768Z,1.20
2019-01-04T02:27:40.631Z,1.00
2019-01-04T02:30:09.841Z,1.00
2019-01-04T02:32:38.760Z,0.90
2019-01-04T02:35:07.730Z,0.90
2019-01-04T02:40:05.141Z,0.90
2019-01-04T02:42:33.948Z,0.90
2019-01-04T02:45:02.721Z,0.90
2019-01-04T02:47:31.626Z,0.90
2019-01-04T02:50:00.461Z,0.90
2019-01-04T02:52:29.319Z,1.00
2019-01-04T02:54:58.508Z,1.00
2019-01-04T02:57:27.326Z,0.90
2019-01-04T03:02:24.460Z,0.90
2019-01-04T03:04:53.580Z,0.90
2019-01-04T03:07:22.523Z,0.90
2019-01-04T03:09:51.515Z,0.80
2019-01-04T03:12:20.330Z,0.80
2019-01-04T03:14:49.185Z,0.80
2019-01-04T03:17:18.045Z,0.80
2019-01-04T03:19:46.943Z,0.70
2019-01-04T03:24:44.147Z,0.80
2019-01-04T03:27:12.925Z,0.80
2019-01-04T03:29:41.815Z,0.80
2019-01-04T03:32:10.788Z,0.50
2019-01-04T03:34:39.640Z,0.50
2019-01-04T03:37:08.775Z,0.60
2019-01-04T03:39:37.743Z,0.70
2019-01-04T03:42:06.695Z,0.60
2019-01-04T03:47:04.316Z,0.90
2019-01-04T03:49:33.292Z,0.90
2019-01-04T03:52:02.013Z,0.90
2019-01-04T03:54:30.814Z,0.90
2019-01-04T03:56:59.625Z,0.80
2019-01-04T03:59:28.365Z,0.80
2019-01-04T04:01:57.224Z,0.70
2019-01-04T04:04:26.062Z,0.80
2019-01-04T04:09:23.384Z,0.90
2019-01-04T04:11:52.255Z,0.90
2019-01-04T04:14:21.099Z,0.80
2019-01-04T04:16:49.877Z,0.90
2019-01-04T04:19:18.760Z,0.90
2019-01-04T04:21:47.636Z,0.90
2019-01-04T04:24:16.489Z,0.90
2019-01-04T04:26:45.402Z,1.40
2019-01-04T04:31:42.633Z,0.90
2019-01-04T04:34:11.446Z,1.00
2019-01-04T04:36:40.196Z,0.90
2019-01-04T04:39:09.078Z,0.90
2019-01-04T04:41:37.810Z,0.80
2019-01-04T04:44:06.784Z,0.90
2019-01-04T04:46:35.515Z,0.80
2019-01-04T04:51:32.858Z,0.90
2019-01-04T04:54:01.755Z,0.90
2019-01-04T04:56:30.537Z,1.00
2019-01-04T04:58:59.301Z,1.00
2019-01-04T05:01:28.129Z,1.10
2019-01-04T05:03:56.890Z,1.00
2019-01-04T05:06:25.725Z,0.40
2019-01-04T05:08:54.544Z,1.30
2019-01-04T05:13:51.745Z,1.20
2019-01-04T05:16:20.539Z,1.10
2019-01-04T05:18:49.349Z,1.10
2019-01-04T05:21:18.168Z,1.10
2019-01-04T05:23:46.983Z,1.20
2019-01-04T05:26:15.876Z,1.10
2019-01-04T05:28:44.853Z,1.10
2019-01-04T05:31:13.596Z,1.00
2019-01-04T05:36:10.845Z,1.00
2019-01-04T05:38:39.611Z,1.10
2019-01-04T05:41:08.749Z,1.10
2019-01-04T05:43:37.493Z,0.90
2019-01-04T05:46:06.264Z,1.00
2019-01-04T05:48:35.152Z,1.00
2019-01-04T05:51:03.871Z,1.10
2019-01-04T05:56:01.067Z,0.90
2019-01-04T05:58:29.784Z,1.00
2019-01-04T06:00:58.564Z,1.00
2019-01-04T06:03:28.241Z,1.00
2019-01-04T06:05:57.402Z,1.00
2019-01-04T06:08:26.138Z,1.00
2019-01-04T06:10:55.241Z,1.10
2019-01-04T06:13:24.075Z,1.10
2019-01-04T06:18:21.232Z,1.20
2019-01-04T06:20:50.022Z,1.00
2019-01-04T06:23:18.824Z,0.90
2019-01-04T06:25:47.850Z,0.80
2019-01-04T06:28:16.957Z,0.80
2019-01-04T06:30:45.729Z,0.90
2019-01-04T06:33:14.541Z,0.90
2019-01-04T06:35:43.549Z,0.90
2019-01-04T06:40:40.813Z,0.90
2019-01-04T06:43:09.725Z,1.10
2019-01-04T06:45:39.020Z,1.20
2019-01-04T06:48:07.934Z,1.30
2019-01-04T06:50:37.369Z,1.20
2019-01-04T06:53:06.295Z,1.10
2019-01-04T06:58:18.303Z,1.30
2019-01-04T07:00:47.049Z,1.20
2019-01-04T07:03:15.925Z,1.20
2019-01-04T07:05:44.766Z,1.10
2019-01-04T07:08:13.658Z,1.20
2019-01-04T07:10:42.418Z,1.10
2019-01-04T07:13:11.302Z,1.20
2019-01-04T07:15:40.126Z,1.20
2019-01-04T07:20:37.239Z,1.10
2019-01-04T07:23:06.084Z,1.10
2019-01-04T07:25:34.945Z,1.00
2019-01-04T07:28:03.728Z,1.00
2019-01-04T07:30:33.113Z,1.00
2019-01-04T07:33:01.956Z,0.90
2019-01-04T07:35:30.860Z,0.90
2019-01-04T07:37:59.598Z,0.90
2019-01-04T07:42:56.877Z,1.00
2019-01-04T07:45:25.690Z,1.10
2019-01-04T07:47:54.698Z,1.20
2019-01-04T07:50:23.583Z,1.20
2019-01-04T07:52:52.542Z,1.20
2019-01-04T07:55:21.555Z,1.10
2019-01-04T07:57:50.339Z,1.00
2019-01-04T08:05:24.191Z,1.60
2019-01-04T08:07:54.040Z,1.00
2019-01-04T08:10:22.818Z,1.00
2019-01-04T08:12:51.713Z,1.00
2019-01-04T08:15:20.392Z,1.00
2019-01-04T08:17:49.187Z,0.90
2019-01-04T08:20:17.957Z,0.80
2019-01-04T08:25:15.272Z,0.90
2019-01-04T08:27:44.208Z,0.80
2019-01-04T08:30:17.354Z,0.70
2019-01-04T08:32:46.134Z,0.80
2019-01-04T08:35:14.856Z,0.70
2019-01-04T08:37:43.651Z,0.70
2019-01-04T08:40:13.091Z,0.70
2019-01-04T08:42:42.007Z,0.90
2019-01-04T08:47:40.070Z,0.80
2019-01-04T08:50:10.982Z,0.90
2019-01-04T08:52:39.897Z,1.00
2019-01-04T08:55:23.029Z,0.90
2019-01-04T08:57:51.791Z,0.90
2019-01-04T09:00:20.524Z,0.90
2019-01-04T09:02:49.480Z,0.90
2019-01-04T09:05:18.468Z,0.90
2019-01-04T09:10:15.852Z,0.90
2019-01-04T09:12:44.564Z,1.00
2019-01-04T09:15:13.419Z,0.90
2019-01-04T09:17:42.215Z,0.80
2019-01-04T09:20:11.577Z,0.80
2019-01-04T09:22:41.491Z,0.80
2019-01-04T09:25:10.786Z,0.80
2019-01-04T09:27:39.844Z,0.70
2019-01-04T09:32:38.841Z,0.70
2019-01-04T09:35:07.756Z,0.70
2019-01-04T09:37:36.540Z,1.50
2019-01-04T09:40:06.303Z,1.00
2019-01-04T09:42:35.104Z,0.90
2019-01-04T09:45:03.900Z,1.00
2019-01-04T09:47:32.697Z,0.90
2019-01-04T09:52:30.007Z,1.00
2019-01-04T09:54:58.810Z,0.80
2019-01-04T09:57:27.841Z,0.80
2019-01-04T09:59:56.894Z,0.80
2019-01-04T10:02:25.793Z,0.70
2019-01-04T10:04:54.542Z,0.60
2019-01-04T10:07:23.399Z,0.80
2019-01-04T10:12:20.773Z,0.90
2019-01-04T10:14:49.839Z,1.10
2019-01-04T10:17:18.700Z,1.00
2019-01-04T10:19:47.512Z,1.20
2019-01-04T10:22:16.536Z,1.20
2019-01-04T10:24:45.421Z,1.20
2019-01-04T10:27:14.297Z,1.10
2019-01-04T10:29:43.002Z,1.10
2019-01-04T10:34:40.221Z,1.30
2019-01-04T10:37:09.215Z,1.20
2019-01-04T10:39:37.989Z,1.20
2019-01-04T10:42:06.761Z,1.30
2019-01-04T10:44:35.612Z,1.20
2019-01-04T10:47:04.467Z,1.10
2019-01-04T10:49:33.366Z,1.20
2019-01-04T10:52:02.204Z,1.30
2019-01-04T10:56:59.714Z,1.40
2019-01-04T10:59:28.619Z,1.50
2019-01-04T11:01:57.467Z,1.60
2019-01-04T11:04:28.040Z,1.60
2019-01-04T11:06:57.041Z,1.40
2019-01-04T11:09:26.038Z,1.40
2019-01-04T11:11:54.984Z,1.50
2019-01-04T11:14:24.213Z,1.70
2019-01-04T11:19:21.668Z,1.90
2019-01-04T11:21:50.688Z,1.90
2019-01-04T11:24:51.771Z,2.00
2019-01-04T11:27:44.211Z,2.00
2019-01-04T11:30:35.670Z,2.20
2019-01-04T11:33:39.154Z,2.20
2019-01-04T11:36:54.192Z,2.20
2019-01-04T11:39:42.744Z,2.30
2019-01-04T11:42:37.185Z,2.30
2019-01-04T11:48:23.892Z,2.10
2019-01-04T11:51:34.248Z,2.00
2019-01-04T11:54:07.310Z,2.00
2019-01-04T11:56:36.098Z,1.80
2019-01-04T11:59:04.929Z,1.90
2019-01-04T12:01:34.134Z,1.80
2019-01-04T12:04:03.087Z,1.70
2019-01-04T12:09:00.386Z,1.70
2019-01-04T12:11:29.183Z,1.80
2019-01-04T12:13:57.983Z,1.90
2019-01-04T12:16:26.731Z,1.80
2019-01-04T12:18:55.545Z,1.80
2019-01-04T12:21:24.352Z,1.80
2019-01-04T12:23:53.170Z,1.80
2019-01-04T12:28:50.541Z,1.60
2019-01-04T12:31:19.532Z,1.80
2019-01-04T12:33:48.362Z,1.80
2019-01-04T12:36:17.441Z,1.80
2019-01-04T12:38:46.185Z,1.90
2019-01-04T12:41:14.951Z,2.10
2019-01-04T12:43:47.819Z,2.10
2019-01-04T12:46:15.064Z,1.90
2019-01-04T12:53:40.723Z,2.10
2019-01-04T12:56:09.476Z,2.10
2019-01-04T12:58:38.228Z,2.20
2019-01-04T13:01:07.001Z,2.30
2019-01-04T13:03:35.709Z,2.50
2019-01-04T13:06:04.593Z,2.50
2019-01-04T13:08:33.341Z,2.50
2019-01-04T13:13:30.737Z,2.60
2019-01-04T13:15:59.620Z,2.50
2019-01-04T13:18:28.469Z,2.50
2019-01-04T13:20:57.277Z,2.40
2019-01-04T13:23:26.029Z,2.40
2019-01-04T13:25:54.910Z,2.30
2019-01-04T13:28:23.764Z,2.30
2019-01-04T13:30:52.600Z,2.30
2019-01-04T13:35:49.947Z,2.30
2019-01-04T13:38:20.141Z,2.40
2019-01-04T13:40:49.367Z,2.50
2019-01-04T13:43:18.115Z,2.40
2019-01-04T13:45:46.933Z,2.40
2019-01-04T13:48:15.668Z,2.30
2019-01-04T13:50:44.429Z,2.40
2019-01-04T13:53:13.291Z,2.30
2019-01-04T13:58:10.411Z,2.10
2019-01-04T14:00:39.368Z,2.10
2019-01-04T14:03:08.276Z,2.00
2019-01-04T14:05:37.213Z,1.90
2019-01-04T14:08:06.069Z,2.00
2019-01-04T14:10:34.862Z,1.90
2019-01-04T14:13:09.093Z,1.90
2019-01-04T14:15:34.130Z,2.70
2019-01-04T14:20:31.269Z,2.60
2019-01-04T14:23:00.062Z,2.60
2019-01-04T14:25:28.950Z,2.50
2019-01-04T14:27:57.815Z,2.40
2019-01-04T14:30:26.505Z,2.40
2019-01-04T14:32:55.314Z,2.10
2019-01-04T14:35:24.152Z,2.00
2019-01-04T14:37:53.036Z,1.80
2019-01-04T14:42:50.255Z,2.00
2019-01-04T14:45:19.081Z,2.10
2019-01-04T14:47:47.823Z,2.10
2019-01-04T14:50:16.795Z,2.00
2019-01-04T14:52:45.943Z,2.00
2019-01-04T14:55:14.781Z,1.90
2019-01-04T14:57:43.588Z,1.90
2019-01-04T15:00:13.386Z,1.90
2019-01-04T15:05:10.769Z,1.70
2019-01-04T15:07:39.601Z,1.80
2019-01-04T15:10:09.487Z,1.80
2019-01-04T15:12:38.257Z,1.90
2019-01-04T15:15:07.234Z,1.90
2019-01-04T15:17:36.068Z,2.00
2019-01-04T15:20:05.109Z,2.00
2019-01-04T15:27:30.531Z,2.00
2019-01-04T15:29:59.287Z,2.00
2019-01-04T15:32:28.092Z,2.00
2019-01-04T15:34:57.027Z,2.10
2019-01-04T15:37:25.841Z,2.10
2019-01-04T15:39:54.793Z,2.00
2019-01-04T15:42:23.609Z,1.80
2019-01-04T15:47:20.887Z,1.80
2019-01-04T15:49:49.629Z,1.80
2019-01-04T15:52:18.481Z,1.90
2019-01-04T15:54:47.382Z,1.90
2019-01-04T15:57:16.350Z,2.00
2019-01-04T15:59:45.105Z,1.90
2019-01-04T16:02:14.045Z,1.90
2019-01-04T16:04:43.338Z,1.80
2019-01-04T16:09:40.742Z,1.80
2019-01-04T16:12:09.723Z,1.80
2019-01-04T16:14:38.520Z,1.80
2019-01-04T16:17:12.052Z,1.80
2019-01-04T16:19:37.833Z,1.80
2019-01-04T16:22:06.596Z,1.80
2019-01-04T16:24:35.322Z,1.80
2019-01-04T16:27:04.285Z,1.70
2019-01-04T16:32:01.820Z,1.80
2019-01-04T16:34:30.833Z,1.80
2019-01-04T16:36:59.751Z,1.70
2019-01-04T16:39:28.788Z,1.70
2019-01-04T16:41:57.644Z,1.70
2019-01-04T16:44:26.484Z,1.70
2019-01-04T16:46:55.237Z,1.80
2019-01-04T16:49:24.104Z,1.70
2019-01-04T16:54:21.325Z,1.70
2019-01-04T16:56:50.214Z,1.70
2019-01-04T16:59:19.056Z,1.60
2019-01-04T17:01:48.027Z,1.70
2019-01-04T17:04:16.932Z,1.80
2019-01-04T17:06:45.872Z,1.80
2019-01-04T17:09:14.584Z,1.80
2019-01-04T17:11:43.459Z,2.00
2019-01-04T17:16:40.633Z,1.70
2019-01-04T17:19:09.396Z,1.80
2019-01-04T17:21:38.336Z,1.70
2019-01-04T17:24:07.337Z,1.80
2019-01-04T17:26:36.626Z,1.80
2019-01-04T17:29:05.452Z,1.70
2019-01-04T17:31:34.182Z,1.60
2019-01-04T17:34:03.205Z,1.80
2019-01-04T17:39:00.404Z,1.70
2019-01-04T17:41:29.124Z,1.80
2019-01-04T17:43:57.888Z,1.80
2019-01-04T17:46:26.785Z,1.80
2019-01-04T17:48:55.712Z,1.80
2019-01-04T17:51:24.492Z,1.80
2019-01-04T17:53:53.338Z,1.70
2019-01-04T17:56:22.366Z,1.70
2019-01-04T18:01:19.926Z,1.70
2019-01-04T18:03:48.796Z,1.80
2019-01-04T18:06:17.505Z,1.80
2019-01-04T18:08:46.293Z,1.90
2019-01-04T18:11:15.250Z,1.80
2019-01-04T18:13:43.970Z,1.70
2019-01-04T18:16:12.807Z,1.70
2019-01-04T18:18:41.612Z,1.80
2019-01-04T18:23:38.746Z,1.90
2019-01-04T18:26:07.697Z,1.80
2019-01-04T18:28:36.467Z,1.70
2019-01-04T18:31:05.174Z,1.80
2019-01-04T18:33:33.999Z,1.70
2019-01-04T18:36:02.806Z,1.80
2019-01-04T18:38:31.601Z,1.80
2019-01-04T18:43:28.886Z,1.90
2019-01-04T18:45:57.701Z,1.90
2019-01-04T18:48:26.955Z,1.80
2019-01-04T18:50:55.945Z,1.70
2019-01-04T18:53:24.798Z,1.70
2019-01-04T18:55:53.837Z,1.50
2019-01-04T18:58:22.714Z,1.60
2019-01-04T19:00:51.899Z,1.60
2019-01-04T19:05:51.380Z,1.70
2019-01-04T19:08:20.286Z,1.70
2019-01-04T19:10:49.133Z,1.70
2019-01-04T19:13:18.108Z,1.80
2019-01-04T19:15:46.972Z,1.80
2019-01-04T19:18:15.939Z,1.80
2019-01-04T19:20:44.885Z,1.80
2019-01-04T19:23:13.664Z,1.90
2019-01-04T19:28:10.879Z,1.80
2019-01-04T19:30:39.601Z,1.90
2019-01-04T19:33:08.431Z,1.80
2019-01-04T19:35:37.195Z,1.80
2019-01-04T19:38:06.012Z,1.80
2019-01-04T19:40:34.942Z,1.80
2019-01-04T19:43:03.678Z,1.70
2019-01-04T19:45:32.495Z,1.70
2019-01-04T19:50:29.813Z,1.60
2019-01-04T19:52:58.630Z,1.70
2019-01-04T19:55:27.560Z,1.80
2019-01-04T19:57:56.367Z,1.90
2019-01-04T20:00:25.161Z,1.90
2019-01-04T20:02:55.095Z,2.00
2019-01-04T20:05:43.847Z,2.00
2019-01-04T20:09:12.007Z,2.10
2019-01-04T20:13:02.041Z,2.20
2019-01-04T20:16:24.737Z,2.20
2019-01-04T20:19:12.780Z,2.30
2019-01-04T20:21:59.293Z,2.40
2019-01-04T20:27:38.789Z,2.30
2019-01-04T20:30:41.866Z,2.20
2019-01-04T20:33:24.799Z,2.20
2019-01-04T20:36:18.773Z,2.40
2019-01-04T20:39:05.507Z,2.30
2019-01-04T20:42:05.465Z,2.30
2019-01-04T20:45:01.918Z,2.30
2019-01-04T20:47:58.379Z,2.20
2019-01-04T20:50:44.833Z,1.80
2019-01-04T20:56:21.046Z,1.80
2019-01-04T20:59:07.725Z,1.70
2019-01-04T21:02:13.911Z,1.80
2019-01-04T21:05:12.498Z,1.60
2019-01-04T21:08:10.285Z,1.50
2019-01-04T21:11:04.225Z,1.50
2019-01-04T21:13:59.958Z,1.60
2019-01-04T21:16:51.045Z,1.60
2019-01-04T21:19:33.690Z,1.80
2019-01-04T21:22:20.536Z,1.60
2019-01-04T21:28:25.414Z,1.50
2019-01-04T21:31:13.057Z,1.60
2019-01-04T21:34:11.889Z,1.80
2019-01-04T21:37:11.624Z,1.90
2019-01-04T21:39:58.055Z,2.00
2019-01-04T21:42:43.698Z,1.90
2019-01-04T21:45:46.751Z,1.90
2019-01-04T21:48:33.817Z,2.00
2019-01-04T21:51:17.193Z,2.00
2019-01-04T21:54:01.225Z,2.00
2019-01-04T21:59:34.349Z,2.00
2019-01-04T22:02:37.775Z,2.10
2019-01-04T22:05:37.152Z,2.20
2019-01-04T22:08:24.777Z,2.20
2019-01-04T22:11:11.343Z,2.20
2019-01-04T22:13:57.841Z,2.00
2019-01-04T22:16:44.252Z,2.00
2019-01-04T22:19:31.897Z,2.00
2019-01-04T22:22:28.587Z,1.80
2019-01-04T22:31:05.238Z,1.90
2019-01-04T22:33:54.269Z,2.00
2019-01-04T22:36:50.808Z,2.00
2019-01-04T22:39:47.792Z,2.00
2019-01-04T22:42:35.688Z,1.90
2019-01-04T22:45:37.620Z,1.90
2019-01-04T22:48:43.322Z,2.00
2019-01-04T22:51:48.887Z,2.10
2019-01-04T22:54:44.158Z,2.20
2019-01-04T22:57:50.033Z,2.10
2019-01-04T23:00:54.930Z,2.00
2019-01-04T23:03:45.990Z,2.00
2019-01-04T23:12:20.175Z,1.80
2019-01-04T23:15:09.080Z,1.90
2019-01-04T23:17:55.514Z,2.00
2019-01-04T23:20:47.692Z,1.70
2019-01-04T23:23:36.080Z,1.70
2019-01-04T23:26:35.893Z,1.70
2019-01-04T23:29:22.790Z,1.70
2019-01-04T23:34:54.786Z,1.80
2019-01-04T23:37:54.688Z,1.80
2019-01-04T23:40:45.479Z,1.80
2019-01-04T23:43:31.868Z,1.80
2019-01-04T23:46:19.733Z,2.00
2019-01-04T23:49:04.358Z,2.20
2019-01-04T23:51:49.441Z,2.10
2019-01-04T23:54:36.126Z,1.90
